Terminal Aerodrome Forecast
Issued by NWS San Angelo, TX

Home | Current Version | Previous Version | Text Only | Print | Product List | Glossary On
Versions: 1 2 3 4 5 6 7 8 9 10 11 12
309
FTUS44 KSJT 052320
TAFABI
TAF
KABI 052320Z 0600/0624 21011G17KT P6SM FEW250
     FM060200 33011G17KT P6SM SCT250
     FM061400 34014G22KT P6SM FEW250=

USA.gov is the U.S. government's official web portal to all federal, state and local government web resources and services.